sensor_id;sensor_type;location;lat;lon;timestamp;P1;durP1;ratioP1;P2;durP2;ratioP2
54430;SDS011;40342;52.998;5.862;2022-10-13T00:01:50;27.42;;;14.48;;
54430;SDS011;40342;52.998;5.862;2022-10-13T00:04:16;22.40;;;13.50;;
54430;SDS011;40342;52.998;5.862;2022-10-13T00:06:41;22.42;;;13.43;;
54430;SDS011;40342;52.998;5.862;2022-10-13T00:09:07;26.52;;;14.15;;
54430;SDS011;40342;52.998;5.862;2022-10-13T00:11:32;24.70;;;12.93;;
54430;SDS011;40342;52.998;5.862;2022-10-13T00:13:59;24.58;;;13.85;;
54430;SDS011;40342;52.998;5.862;2022-10-13T00:16:26;20.95;;;13.18;;
54430;SDS011;40342;52.998;5.862;2022-10-13T00:18:53;20.08;;;13.10;;
54430;SDS011;40342;52.998;5.862;2022-10-13T00:21:22;24.35;;;12.95;;
54430;SDS011;40342;52.998;5.862;2022-10-13T00:23:49;26.00;;;14.07;;
54430;SDS011;40342;52.998;5.862;2022-10-13T00:26:16;21.75;;;13.18;;
54430;SDS011;40342;52.998;5.862;2022-10-13T00:28:42;20.95;;;12.60;;
54430;SDS011;40342;52.998;5.862;2022-10-13T00:33:47;19.90;;;13.93;;
54430;SDS011;40342;52.998;5.862;2022-10-13T00:36:13;22.75;;;12.77;;
54430;SDS011;40342;52.998;5.862;2022-10-13T00:38:40;20.40;;;12.57;;
54430;SDS011;40342;52.998;5.862;2022-10-13T00:41:06;21.42;;;13.43;;
54430;SDS011;40342;52.998;5.862;2022-10-13T00:43:49;21.33;;;12.95;;
54430;SDS011;40342;52.998;5.862;2022-10-13T00:46:21;21.17;;;12.43;;
54430;SDS011;40342;52.998;5.862;2022-10-13T00:48:48;22.88;;;11.93;;
54430;SDS011;40342;52.998;5.862;2022-10-13T00:51:17;16.65;;;12.73;;
54430;SDS011;40342;52.998;5.862;2022-10-13T00:53:48;21.90;;;11.98;;
54430;SDS011;40342;52.998;5.862;2022-10-13T00:56:14;19.27;;;12.40;;
54430;SDS011;40342;52.998;5.862;2022-10-13T00:58:43;18.70;;;12.48;;
54430;SDS011;40342;52.998;5.862;2022-10-13T01:01:10;22.83;;;12.00;;
54430;SDS011;40342;52.998;5.862;2022-10-13T01:03:36;19.67;;;12.00;;
54430;SDS011;40342;52.998;5.862;2022-10-13T01:06:02;18.77;;;11.85;;
54430;SDS011;40342;52.998;5.862;2022-10-13T01:08:29;17.77;;;11.07;;
54430;SDS011;40342;52.998;5.862;2022-10-13T01:13:57;24.23;;;11.68;;
54430;SDS011;40342;52.998;5.862;2022-10-13T01:16:41;22.08;;;11.32;;
54430;SDS011;40342;52.998;5.862;2022-10-13T01:22:45;17.75;;;11.95;;
54430;SDS011;40342;52.998;5.862;2022-10-13T01:28:32;21.27;;;12.15;;
54430;SDS011;40342;52.998;5.862;2022-10-13T01:31:23;20.60;;;11.85;;
54430;SDS011;40342;52.998;5.862;2022-10-13T01:34:06;22.05;;;12.20;;
54430;SDS011;40342;52.998;5.862;2022-10-13T01:36:56;19.40;;;12.25;;
54430;SDS011;40342;52.998;5.862;2022-10-13T01:39:32;21.15;;;12.35;;
54430;SDS011;40342;52.998;5.862;2022-10-13T01:42:01;20.55;;;13.07;;
54430;SDS011;40342;52.998;5.862;2022-10-13T01:44:36;27.23;;;12.13;;
54430;SDS011;40342;52.998;5.862;2022-10-13T01:47:06;20.13;;;12.10;;
54430;SDS011;40342;52.998;5.862;2022-10-13T01:49:33;22.38;;;12.45;;
54430;SDS011;40342;52.998;5.862;2022-10-13T01:52:06;22.40;;;12.48;;
54430;SDS011;40342;52.998;5.862;2022-10-13T01:54:37;22.48;;;12.30;;
54430;SDS011;40342;52.998;5.862;2022-10-13T01:57:02;22.60;;;12.80;;
54430;SDS011;40342;52.998;5.862;2022-10-13T01:59:28;20.75;;;13.07;;
54430;SDS011;40342;52.998;5.862;2022-10-13T02:04:54;21.15;;;12.43;;
54430;SDS011;40342;52.998;5.862;2022-10-13T02:07:37;21.52;;;12.02;;
54430;SDS011;40342;52.998;5.862;2022-10-13T02:10:30;22.17;;;12.07;;
54430;SDS011;40342;52.998;5.862;2022-10-13T02:13:23;23.20;;;12.63;;
54430;SDS011;40342;52.998;5.862;2022-10-13T02:15:51;18.58;;;12.57;;
54430;SDS011;40342;52.998;5.862;2022-10-13T02:18:20;21.40;;;13.18;;
54430;SDS011;40342;52.998;5.862;2022-10-13T02:20:50;23.85;;;13.35;;
54430;SDS011;40342;52.998;5.862;2022-10-13T02:23:16;26.42;;;12.70;;
54430;SDS011;40342;52.998;5.862;2022-10-13T02:25:42;24.63;;;13.27;;
54430;SDS011;40342;52.998;5.862;2022-10-13T02:28:09;18.67;;;12.15;;
54430;SDS011;40342;52.998;5.862;2022-10-13T02:30:38;22.45;;;13.05;;
54430;SDS011;40342;52.998;5.862;2022-10-13T02:33:05;20.88;;;13.07;;
54430;SDS011;40342;52.998;5.862;2022-10-13T02:35:31;18.63;;;12.65;;
54430;SDS011;40342;52.998;5.862;2022-10-13T02:37:57;22.30;;;13.30;;
54430;SDS011;40342;52.998;5.862;2022-10-13T02:40:23;20.42;;;13.80;;
54430;SDS011;40342;52.998;5.862;2022-10-13T02:42:49;21.58;;;13.93;;
54430;SDS011;40342;52.998;5.862;2022-10-13T02:45:15;20.63;;;13.80;;
54430;SDS011;40342;52.998;5.862;2022-10-13T02:47:40;23.13;;;14.25;;
54430;SDS011;40342;52.998;5.862;2022-10-13T02:50:06;21.63;;;13.60;;
54430;SDS011;40342;52.998;5.862;2022-10-13T02:52:32;24.48;;;14.20;;
54430;SDS011;40342;52.998;5.862;2022-10-13T02:54:58;28.15;;;14.25;;
54430;SDS011;40342;52.998;5.862;2022-10-13T02:57:23;27.83;;;14.70;;
54430;SDS011;40342;52.998;5.862;2022-10-13T02:59:49;20.83;;;14.10;;
54430;SDS011;40342;52.998;5.862;2022-10-13T03:02:15;26.35;;;15.07;;
54430;SDS011;40342;52.998;5.862;2022-10-13T03:04:41;24.55;;;14.52;;
54430;SDS011;40342;52.998;5.862;2022-10-13T03:07:07;19.83;;;14.38;;
54430;SDS011;40342;52.998;5.862;2022-10-13T03:09:32;20.00;;;14.85;;
54430;SDS011;40342;52.998;5.862;2022-10-13T03:11:58;24.98;;;15.05;;
54430;SDS011;40342;52.998;5.862;2022-10-13T03:14:23;22.83;;;14.95;;
54430;SDS011;40342;52.998;5.862;2022-10-13T03:16:49;20.90;;;14.30;;
54430;SDS011;40342;52.998;5.862;2022-10-13T03:19:15;20.35;;;15.18;;
54430;SDS011;40342;52.998;5.862;2022-10-13T03:21:40;19.65;;;14.82;;
54430;SDS011;40342;52.998;5.862;2022-10-13T03:24:06;20.98;;;15.27;;
54430;SDS011;40342;52.998;5.862;2022-10-13T03:26:32;22.90;;;16.23;;
54430;SDS011;40342;52.998;5.862;2022-10-13T03:28:59;24.60;;;15.90;;
54430;SDS011;40342;52.998;5.862;2022-10-13T03:31:25;29.77;;;17.23;;
54430;SDS011;40342;52.998;5.862;2022-10-13T03:33:51;23.83;;;15.98;;
54430;SDS011;40342;52.998;5.862;2022-10-13T03:36:17;23.75;;;16.00;;
54430;SDS011;40342;52.998;5.862;2022-10-13T03:38:42;24.88;;;16.35;;
54430;SDS011;40342;52.998;5.862;2022-10-13T03:41:09;26.23;;;17.27;;
54430;SDS011;40342;52.998;5.862;2022-10-13T03:43:40;25.45;;;17.52;;
54430;SDS011;40342;52.998;5.862;2022-10-13T03:46:07;25.85;;;16.25;;
54430;SDS011;40342;52.998;5.862;2022-10-13T03:48:35;22.90;;;16.00;;
54430;SDS011;40342;52.998;5.862;2022-10-13T03:51:11;23.55;;;16.08;;
54430;SDS011;40342;52.998;5.862;2022-10-13T03:53:38;23.48;;;15.73;;
54430;SDS011;40342;52.998;5.862;2022-10-13T03:56:04;24.52;;;15.32;;
54430;SDS011;40342;52.998;5.862;2022-10-13T03:58:32;27.23;;;16.10;;
54430;SDS011;40342;52.998;5.862;2022-10-13T04:01:04;26.73;;;16.02;;
54430;SDS011;40342;52.998;5.862;2022-10-13T04:03:31;24.30;;;17.08;;
54430;SDS011;40342;52.998;5.862;2022-10-13T04:06:01;24.40;;;16.75;;
54430;SDS011;40342;52.998;5.862;2022-10-13T04:08:28;23.05;;;15.82;;
54430;SDS011;40342;52.998;5.862;2022-10-13T04:11:01;26.10;;;17.10;;
54430;SDS011;40342;52.998;5.862;2022-10-13T04:13:29;22.77;;;16.13;;
54430;SDS011;40342;52.998;5.862;2022-10-13T04:15:55;26.88;;;17.50;;
54430;SDS011;40342;52.998;5.862;2022-10-13T04:18:20;26.75;;;16.85;;
54430;SDS011;40342;52.998;5.862;2022-10-13T04:20:46;25.70;;;17.00;;
54430;SDS011;40342;52.998;5.862;2022-10-13T04:23:11;23.00;;;16.65;;
54430;SDS011;40342;52.998;5.862;2022-10-13T04:25:37;19.77;;;16.38;;
54430;SDS011;40342;52.998;5.862;2022-10-13T04:28:04;23.40;;;16.98;;
54430;SDS011;40342;52.998;5.862;2022-10-13T04:30:31;25.95;;;18.23;;
54430;SDS011;40342;52.998;5.862;2022-10-13T04:32:57;26.13;;;16.45;;
54430;SDS011;40342;52.998;5.862;2022-10-13T04:35:23;27.67;;;17.65;;
54430;SDS011;40342;52.998;5.862;2022-10-13T04:37:49;23.20;;;16.73;;
54430;SDS011;40342;52.998;5.862;2022-10-13T04:40:14;25.98;;;17.88;;
54430;SDS011;40342;52.998;5.862;2022-10-13T04:42:40;20.45;;;16.20;;
54430;SDS011;40342;52.998;5.862;2022-10-13T04:45:06;25.42;;;17.02;;
54430;SDS011;40342;52.998;5.862;2022-10-13T04:47:33;26.35;;;15.73;;
54430;SDS011;40342;52.998;5.862;2022-10-13T04:49:59;26.77;;;16.95;;
54430;SDS011;40342;52.998;5.862;2022-10-13T04:52:24;23.38;;;15.65;;
54430;SDS011;40342;52.998;5.862;2022-10-13T04:54:50;25.05;;;17.85;;
54430;SDS011;40342;52.998;5.862;2022-10-13T04:57:16;23.75;;;16.10;;
54430;SDS011;40342;52.998;5.862;2022-10-13T04:59:41;23.17;;;17.50;;
54430;SDS011;40342;52.998;5.862;2022-10-13T05:02:07;26.55;;;18.15;;
54430;SDS011;40342;52.998;5.862;2022-10-13T05:04:34;21.02;;;17.00;;
54430;SDS011;40342;52.998;5.862;2022-10-13T05:07:00;27.25;;;18.27;;
54430;SDS011;40342;52.998;5.862;2022-10-13T05:09:26;25.70;;;17.52;;
54430;SDS011;40342;52.998;5.862;2022-10-13T05:11:51;23.23;;;17.98;;
54430;SDS011;40342;52.998;5.862;2022-10-13T05:14:19;25.38;;;18.90;;
54430;SDS011;40342;52.998;5.862;2022-10-13T05:16:45;27.48;;;19.40;;
54430;SDS011;40342;52.998;5.862;2022-10-13T05:19:11;30.35;;;19.23;;
54430;SDS011;40342;52.998;5.862;2022-10-13T05:21:37;29.05;;;20.67;;
54430;SDS011;40342;52.998;5.862;2022-10-13T05:24:03;29.50;;;19.75;;
54430;SDS011;40342;52.998;5.862;2022-10-13T05:26:30;24.63;;;18.75;;
54430;SDS011;40342;52.998;5.862;2022-10-13T05:28:59;27.70;;;18.80;;
54430;SDS011;40342;52.998;5.862;2022-10-13T05:31:27;23.70;;;17.85;;
54430;SDS011;40342;52.998;5.862;2022-10-13T05:33:54;24.40;;;18.10;;
54430;SDS011;40342;52.998;5.862;2022-10-13T05:36:21;28.17;;;20.98;;
54430;SDS011;40342;52.998;5.862;2022-10-13T05:38:52;27.55;;;20.13;;
54430;SDS011;40342;52.998;5.862;2022-10-13T05:41:19;26.13;;;20.58;;
54430;SDS011;40342;52.998;5.862;2022-10-13T05:43:46;27.08;;;20.95;;
54430;SDS011;40342;52.998;5.862;2022-10-13T05:46:12;29.05;;;20.90;;
54430;SDS011;40342;52.998;5.862;2022-10-13T05:48:38;26.95;;;21.02;;
54430;SDS011;40342;52.998;5.862;2022-10-13T05:51:06;32.22;;;21.83;;
54430;SDS011;40342;52.998;5.862;2022-10-13T05:53:43;32.15;;;21.15;;
54430;SDS011;40342;52.998;5.862;2022-10-13T05:56:13;30.38;;;21.30;;
54430;SDS011;40342;52.998;5.862;2022-10-13T05:58:43;32.08;;;22.58;;
54430;SDS011;40342;52.998;5.862;2022-10-13T06:01:13;29.65;;;22.15;;
54430;SDS011;40342;52.998;5.862;2022-10-13T06:03:43;29.20;;;22.35;;
54430;SDS011;40342;52.998;5.862;2022-10-13T06:06:10;36.53;;;24.77;;
54430;SDS011;40342;52.998;5.862;2022-10-13T06:08:36;28.98;;;22.42;;
54430;SDS011;40342;52.998;5.862;2022-10-13T06:11:03;36.95;;;24.33;;
54430;SDS011;40342;52.998;5.862;2022-10-13T06:13:29;32.78;;;23.67;;
54430;SDS011;40342;52.998;5.862;2022-10-13T06:15:54;28.10;;;23.25;;
54430;SDS011;40342;52.998;5.862;2022-10-13T06:18:20;30.75;;;23.58;;
54430;SDS011;40342;52.998;5.862;2022-10-13T06:20:46;30.67;;;23.15;;
54430;SDS011;40342;52.998;5.862;2022-10-13T06:23:11;28.55;;;23.88;;
54430;SDS011;40342;52.998;5.862;2022-10-13T06:25:37;33.03;;;23.08;;
54430;SDS011;40342;52.998;5.862;2022-10-13T06:28:10;33.13;;;25.40;;
54430;SDS011;40342;52.998;5.862;2022-10-13T06:30:37;33.25;;;23.67;;
54430;SDS011;40342;52.998;5.862;2022-10-13T06:33:02;28.98;;;24.38;;
54430;SDS011;40342;52.998;5.862;2022-10-13T06:35:28;33.28;;;24.08;;
54430;SDS011;40342;52.998;5.862;2022-10-13T06:37:55;33.85;;;23.33;;
54430;SDS011;40342;52.998;5.862;2022-10-13T06:40:21;29.27;;;23.38;;
54430;SDS011;40342;52.998;5.862;2022-10-13T06:42:50;33.42;;;24.23;;
54430;SDS011;40342;52.998;5.862;2022-10-13T06:45:15;27.63;;;23.50;;
54430;SDS011;40342;52.998;5.862;2022-10-13T06:47:43;34.28;;;24.15;;
54430;SDS011;40342;52.998;5.862;2022-10-13T06:50:09;35.28;;;24.40;;
54430;SDS011;40342;52.998;5.862;2022-10-13T06:52:34;34.08;;;24.17;;
54430;SDS011;40342;52.998;5.862;2022-10-13T06:55:00;30.75;;;24.30;;
54430;SDS011;40342;52.998;5.862;2022-10-13T06:57:26;34.92;;;24.50;;
54430;SDS011;40342;52.998;5.862;2022-10-13T06:59:51;37.15;;;24.48;;
54430;SDS011;40342;52.998;5.862;2022-10-13T07:02:17;34.38;;;24.80;;
54430;SDS011;40342;52.998;5.862;2022-10-13T07:04:42;30.27;;;23.90;;
54430;SDS011;40342;52.998;5.862;2022-10-13T07:07:08;31.75;;;23.95;;
54430;SDS011;40342;52.998;5.862;2022-10-13T07:09:34;29.15;;;25.08;;
54430;SDS011;40342;52.998;5.862;2022-10-13T07:11:59;31.35;;;23.02;;
54430;SDS011;40342;52.998;5.862;2022-10-13T07:14:25;38.92;;;24.92;;
54430;SDS011;40342;52.998;5.862;2022-10-13T07:16:50;37.05;;;25.38;;
54430;SDS011;40342;52.998;5.862;2022-10-13T07:19:16;34.28;;;24.67;;
54430;SDS011;40342;52.998;5.862;2022-10-13T07:21:41;33.67;;;24.02;;
54430;SDS011;40342;52.998;5.862;2022-10-13T07:24:08;35.22;;;25.02;;
54430;SDS011;40342;52.998;5.862;2022-10-13T07:26:35;35.50;;;24.85;;
54430;SDS011;40342;52.998;5.862;2022-10-13T07:29:00;39.00;;;25.42;;
54430;SDS011;40342;52.998;5.862;2022-10-13T07:31:26;33.40;;;24.90;;
54430;SDS011;40342;52.998;5.862;2022-10-13T07:33:52;36.92;;;25.17;;
54430;SDS011;40342;52.998;5.862;2022-10-13T07:36:17;33.53;;;24.35;;
54430;SDS011;40342;52.998;5.862;2022-10-13T07:38:43;36.20;;;23.27;;
54430;SDS011;40342;52.998;5.862;2022-10-13T07:41:10;34.92;;;24.83;;
54430;SDS011;40342;52.998;5.862;2022-10-13T07:43:36;35.97;;;24.75;;
54430;SDS011;40342;52.998;5.862;2022-10-13T07:46:02;31.10;;;24.38;;
54430;SDS011;40342;52.998;5.862;2022-10-13T07:48:29;35.97;;;24.45;;
54430;SDS011;40342;52.998;5.862;2022-10-13T07:50:55;33.40;;;24.83;;
54430;SDS011;40342;52.998;5.862;2022-10-13T07:53:21;37.55;;;25.13;;
54430;SDS011;40342;52.998;5.862;2022-10-13T07:55:46;30.65;;;23.60;;
54430;SDS011;40342;52.998;5.862;2022-10-13T07:58:12;31.17;;;24.73;;
54430;SDS011;40342;52.998;5.862;2022-10-13T08:00:38;31.10;;;23.48;;
54430;SDS011;40342;52.998;5.862;2022-10-13T08:03:03;35.53;;;24.92;;
54430;SDS011;40342;52.998;5.862;2022-10-13T08:05:29;33.53;;;24.42;;
54430;SDS011;40342;52.998;5.862;2022-10-13T08:07:55;34.35;;;23.42;;
54430;SDS011;40342;52.998;5.862;2022-10-13T08:10:20;33.50;;;23.85;;
54430;SDS011;40342;52.998;5.862;2022-10-13T08:12:46;34.40;;;23.95;;
54430;SDS011;40342;52.998;5.862;2022-10-13T08:15:12;35.20;;;24.48;;
54430;SDS011;40342;52.998;5.862;2022-10-13T08:17:38;35.78;;;24.75;;
54430;SDS011;40342;52.998;5.862;2022-10-13T08:20:04;39.13;;;26.17;;
54430;SDS011;40342;52.998;5.862;2022-10-13T08:22:31;33.03;;;24.65;;
54430;SDS011;40342;52.998;5.862;2022-10-13T08:24:58;40.13;;;26.05;;
54430;SDS011;40342;52.998;5.862;2022-10-13T08:27:25;34.97;;;26.77;;
54430;SDS011;40342;52.998;5.862;2022-10-13T08:29:52;33.08;;;26.38;;
54430;SDS011;40342;52.998;5.862;2022-10-13T08:32:19;36.08;;;27.67;;
54430;SDS011;40342;52.998;5.862;2022-10-13T08:34:45;37.25;;;28.20;;
54430;SDS011;40342;52.998;5.862;2022-10-13T08:37:15;34.13;;;27.25;;
54430;SDS011;40342;52.998;5.862;2022-10-13T08:39:43;41.38;;;28.33;;
54430;SDS011;40342;52.998;5.862;2022-10-13T08:42:19;35.83;;;28.05;;
54430;SDS011;40342;52.998;5.862;2022-10-13T08:44:59;35.25;;;28.33;;
54430;SDS011;40342;52.998;5.862;2022-10-13T08:47:33;36.38;;;28.48;;
54430;SDS011;40342;52.998;5.862;2022-10-13T08:50:14;38.55;;;28.55;;
54430;SDS011;40342;52.998;5.862;2022-10-13T08:55:23;38.63;;;28.95;;
54430;SDS011;40342;52.998;5.862;2022-10-13T08:57:49;39.38;;;29.30;;
54430;SDS011;40342;52.998;5.862;2022-10-13T09:00:15;42.33;;;30.02;;
54430;SDS011;40342;52.998;5.862;2022-10-13T09:02:42;37.65;;;29.75;;
54430;SDS011;40342;52.998;5.862;2022-10-13T09:05:11;36.10;;;28.85;;
54430;SDS011;40342;52.998;5.862;2022-10-13T09:07:42;38.00;;;29.60;;
54430;SDS011;40342;52.998;5.862;2022-10-13T09:10:10;39.78;;;30.80;;
54430;SDS011;40342;52.998;5.862;2022-10-13T09:12:36;37.58;;;29.48;;
54430;SDS011;40342;52.998;5.862;2022-10-13T09:15:09;40.05;;;30.30;;
54430;SDS011;40342;52.998;5.862;2022-10-13T09:17:37;42.03;;;31.00;;
54430;SDS011;40342;52.998;5.862;2022-10-13T09:23:03;37.22;;;28.85;;
54430;SDS011;40342;52.998;5.862;2022-10-13T09:25:43;38.35;;;30.65;;
54430;SDS011;40342;52.998;5.862;2022-10-13T09:28:22;37.78;;;29.00;;
54430;SDS011;40342;52.998;5.862;2022-10-13T09:34:01;38.50;;;29.00;;
54430;SDS011;40342;52.998;5.862;2022-10-13T09:36:32;38.42;;;28.67;;
54430;SDS011;40342;52.998;5.862;2022-10-13T09:39:14;41.05;;;29.90;;
54430;SDS011;40342;52.998;5.862;2022-10-13T09:41:41;43.95;;;30.65;;
54430;SDS011;40342;52.998;5.862;2022-10-13T09:46:54;38.60;;;30.25;;
54430;SDS011;40342;52.998;5.862;2022-10-13T09:52:00;40.38;;;28.90;;
54430;SDS011;40342;52.998;5.862;2022-10-13T09:57:14;40.17;;;28.35;;
54430;SDS011;40342;52.998;5.862;2022-10-13T09:59:47;34.60;;;28.20;;
54430;SDS011;40342;52.998;5.862;2022-10-13T10:08:13;36.05;;;27.17;;
54430;SDS011;40342;52.998;5.862;2022-10-13T10:10:50;35.17;;;25.85;;
54430;SDS011;40342;52.998;5.862;2022-10-13T10:13:17;32.00;;;26.02;;
54430;SDS011;40342;52.998;5.862;2022-10-13T10:18:30;35.03;;;28.23;;
54430;SDS011;40342;52.998;5.862;2022-10-13T10:24:20;34.05;;;25.45;;
54430;SDS011;40342;52.998;5.862;2022-10-13T10:27:04;31.48;;;25.90;;
54430;SDS011;40342;52.998;5.862;2022-10-13T10:29:50;29.73;;;25.40;;
54430;SDS011;40342;52.998;5.862;2022-10-13T10:32:26;29.17;;;24.40;;
54430;SDS011;40342;52.998;5.862;2022-10-13T10:35:19;29.52;;;25.65;;
54430;SDS011;40342;52.998;5.862;2022-10-13T10:38:18;33.20;;;26.20;;
54430;SDS011;40342;52.998;5.862;2022-10-13T10:46:39;35.00;;;26.13;;
54430;SDS011;40342;52.998;5.862;2022-10-13T10:49:24;31.90;;;26.10;;
54430;SDS011;40342;52.998;5.862;2022-10-13T10:51:54;30.77;;;25.17;;
54430;SDS011;40342;52.998;5.862;2022-10-13T10:57:14;29.40;;;23.48;;
54430;SDS011;40342;52.998;5.862;2022-10-13T10:59:58;31.05;;;24.20;;
54430;SDS011;40342;52.998;5.862;2022-10-13T11:05:18;34.38;;;24.42;;
54430;SDS011;40342;52.998;5.862;2022-10-13T11:15:10;29.80;;;23.73;;
54430;SDS011;40342;52.998;5.862;2022-10-13T11:17:39;31.20;;;23.48;;
54430;SDS011;40342;52.998;5.862;2022-10-13T11:25:44;21.70;;;18.65;;
54430;SDS011;40342;52.998;5.862;2022-10-13T11:30:47;20.13;;;16.23;;
54430;SDS011;40342;52.998;5.862;2022-10-13T11:41:53;17.38;;;14.18;;
54430;SDS011;40342;52.998;5.862;2022-10-13T11:44:34;16.17;;;14.05;;
54430;SDS011;40342;52.998;5.862;2022-10-13T11:52:53;19.98;;;14.57;;
54430;SDS011;40342;52.998;5.862;2022-10-13T11:55:51;18.60;;;14.68;;
54430;SDS011;40342;52.998;5.862;2022-10-13T11:58:19;17.90;;;13.50;;
54430;SDS011;40342;52.998;5.862;2022-10-13T12:03:31;17.58;;;12.93;;
54430;SDS011;40342;52.998;5.862;2022-10-13T12:08:50;16.45;;;11.43;;
54430;SDS011;40342;52.998;5.862;2022-10-13T12:11:23;15.88;;;10.88;;
54430;SDS011;40342;52.998;5.862;2022-10-13T12:13:52;15.05;;;12.23;;
54430;SDS011;40342;52.998;5.862;2022-10-13T12:16:18;14.90;;;10.85;;
54430;SDS011;40342;52.998;5.862;2022-10-13T12:18:44;22.05;;;12.60;;
54430;SDS011;40342;52.998;5.862;2022-10-13T12:23:41;18.70;;;13.02;;
54430;SDS011;40342;52.998;5.862;2022-10-13T12:26:29;14.52;;;12.73;;
54430;SDS011;40342;52.998;5.862;2022-10-13T12:28:59;17.83;;;13.77;;
54430;SDS011;40342;52.998;5.862;2022-10-13T12:31:28;15.88;;;12.00;;
54430;SDS011;40342;52.998;5.862;2022-10-13T12:34:14;15.23;;;11.75;;
54430;SDS011;40342;52.998;5.862;2022-10-13T12:36:57;16.92;;;10.50;;
54430;SDS011;40342;52.998;5.862;2022-10-13T12:39:27;12.48;;;8.80;;
54430;SDS011;40342;52.998;5.862;2022-10-13T12:41:55;13.27;;;9.45;;
54430;SDS011;40342;52.998;5.862;2022-10-13T12:44:29;11.68;;;6.63;;
54430;SDS011;40342;52.998;5.862;2022-10-13T12:46:56;11.15;;;6.90;;
54430;SDS011;40342;52.998;5.862;2022-10-13T12:49:34;12.48;;;5.75;;
54430;SDS011;40342;52.998;5.862;2022-10-13T12:52:15;12.18;;;7.45;;
54430;SDS011;40342;52.998;5.862;2022-10-13T12:54:51;10.50;;;8.15;;
54430;SDS011;40342;52.998;5.862;2022-10-13T12:57:25;10.50;;;6.95;;
54430;SDS011;40342;52.998;5.862;2022-10-13T13:00:23;8.70;;;6.05;;
54430;SDS011;40342;52.998;5.862;2022-10-13T13:08:23;8.02;;;5.15;;
54430;SDS011;40342;52.998;5.862;2022-10-13T13:10:54;9.57;;;4.53;;
54430;SDS011;40342;52.998;5.862;2022-10-13T13:13:21;7.10;;;4.22;;
54430;SDS011;40342;52.998;5.862;2022-10-13T13:15:47;11.35;;;4.78;;
54430;SDS011;40342;52.998;5.862;2022-10-13T13:20:51;6.43;;;4.28;;
54430;SDS011;40342;52.998;5.862;2022-10-13T13:23:18;9.63;;;5.10;;
54430;SDS011;40342;52.998;5.862;2022-10-13T13:25:45;7.85;;;4.97;;
54430;SDS011;40342;52.998;5.862;2022-10-13T13:28:11;7.50;;;3.80;;
54430;SDS011;40342;52.998;5.862;2022-10-13T13:30:38;16.55;;;6.53;;
54430;SDS011;40342;52.998;5.862;2022-10-13T13:33:05;21.17;;;13.73;;
54430;SDS011;40342;52.998;5.862;2022-10-13T13:35:31;17.33;;;13.25;;
54430;SDS011;40342;52.998;5.862;2022-10-13T13:37:57;16.58;;;13.93;;
54430;SDS011;40342;52.998;5.862;2022-10-13T13:40:24;19.92;;;13.50;;
54430;SDS011;40342;52.998;5.862;2022-10-13T13:42:52;15.10;;;12.32;;
54430;SDS011;40342;52.998;5.862;2022-10-13T13:45:19;15.35;;;12.93;;
54430;SDS011;40342;52.998;5.862;2022-10-13T13:47:46;14.80;;;11.00;;
54430;SDS011;40342;52.998;5.862;2022-10-13T13:50:16;13.70;;;10.27;;
54430;SDS011;40342;52.998;5.862;2022-10-13T13:52:47;14.20;;;11.50;;
54430;SDS011;40342;52.998;5.862;2022-10-13T13:55:13;15.70;;;11.10;;
54430;SDS011;40342;52.998;5.862;2022-10-13T13:57:38;13.57;;;10.60;;
54430;SDS011;40342;52.998;5.862;2022-10-13T14:00:04;14.48;;;10.75;;
54430;SDS011;40342;52.998;5.862;2022-10-13T14:02:31;14.35;;;11.02;;
54430;SDS011;40342;52.998;5.862;2022-10-13T14:04:56;13.30;;;10.43;;
54430;SDS011;40342;52.998;5.862;2022-10-13T14:07:22;14.05;;;11.02;;
54430;SDS011;40342;52.998;5.862;2022-10-13T14:09:48;12.88;;;11.10;;
54430;SDS011;40342;52.998;5.862;2022-10-13T14:12:13;17.17;;;11.25;;
54430;SDS011;40342;52.998;5.862;2022-10-13T14:14:39;13.55;;;11.15;;
54430;SDS011;40342;52.998;5.862;2022-10-13T14:17:04;11.93;;;9.98;;
54430;SDS011;40342;52.998;5.862;2022-10-13T14:19:31;14.75;;;9.93;;
54430;SDS011;40342;52.998;5.862;2022-10-13T14:21:58;17.55;;;10.18;;
54430;SDS011;40342;52.998;5.862;2022-10-13T14:24:25;13.80;;;9.65;;
54430;SDS011;40342;52.998;5.862;2022-10-13T14:26:51;12.55;;;9.52;;
54430;SDS011;40342;52.998;5.862;2022-10-13T14:29:17;13.27;;;10.25;;
54430;SDS011;40342;52.998;5.862;2022-10-13T14:31:42;13.88;;;10.05;;
54430;SDS011;40342;52.998;5.862;2022-10-13T14:34:08;12.13;;;9.35;;
54430;SDS011;40342;52.998;5.862;2022-10-13T14:36:33;9.98;;;8.98;;
54430;SDS011;40342;52.998;5.862;2022-10-13T14:38:59;11.88;;;8.88;;
54430;SDS011;40342;52.998;5.862;2022-10-13T14:41:25;13.15;;;8.30;;
54430;SDS011;40342;52.998;5.862;2022-10-13T14:43:54;12.07;;;9.05;;
54430;SDS011;40342;52.998;5.862;2022-10-13T14:46:20;11.40;;;8.18;;
54430;SDS011;40342;52.998;5.862;2022-10-13T14:48:47;10.95;;;7.75;;
54430;SDS011;40342;52.998;5.862;2022-10-13T14:51:13;10.88;;;8.18;;
54430;SDS011;40342;52.998;5.862;2022-10-13T14:53:40;12.10;;;8.00;;
54430;SDS011;40342;52.998;5.862;2022-10-13T14:56:24;11.63;;;7.55;;
54430;SDS011;40342;52.998;5.862;2022-10-13T14:58:51;13.23;;;8.25;;
54430;SDS011;40342;52.998;5.862;2022-10-13T15:01:18;11.73;;;8.45;;
54430;SDS011;40342;52.998;5.862;2022-10-13T15:03:44;12.60;;;8.65;;
54430;SDS011;40342;52.998;5.862;2022-10-13T15:06:14;14.30;;;8.85;;
54430;SDS011;40342;52.998;5.862;2022-10-13T15:08:44;13.25;;;8.75;;
54430;SDS011;40342;52.998;5.862;2022-10-13T15:11:10;11.18;;;9.00;;
54430;SDS011;40342;52.998;5.862;2022-10-13T15:13:37;14.00;;;9.82;;
54430;SDS011;40342;52.998;5.862;2022-10-13T15:16:04;16.80;;;11.95;;
54430;SDS011;40342;52.998;5.862;2022-10-13T15:18:31;13.07;;;10.15;;
54430;SDS011;40342;52.998;5.862;2022-10-13T15:20:57;11.20;;;8.48;;
54430;SDS011;40342;52.998;5.862;2022-10-13T15:23:23;9.30;;;7.72;;
54430;SDS011;40342;52.998;5.862;2022-10-13T15:25:53;11.95;;;8.48;;
54430;SDS011;40342;52.998;5.862;2022-10-13T15:28:23;12.10;;;8.45;;
54430;SDS011;40342;52.998;5.862;2022-10-13T15:30:53;9.73;;;7.97;;
54430;SDS011;40342;52.998;5.862;2022-10-13T15:33:20;13.63;;;9.77;;
54430;SDS011;40342;52.998;5.862;2022-10-13T15:35:47;18.95;;;11.38;;
54430;SDS011;40342;52.998;5.862;2022-10-13T15:38:14;12.88;;;9.07;;
54430;SDS011;40342;52.998;5.862;2022-10-13T15:40:40;10.27;;;9.23;;
54430;SDS011;40342;52.998;5.862;2022-10-13T15:43:06;16.50;;;8.77;;
54430;SDS011;40342;52.998;5.862;2022-10-13T15:45:32;9.95;;;9.00;;
54430;SDS011;40342;52.998;5.862;2022-10-13T15:47:58;13.10;;;10.63;;
54430;SDS011;40342;52.998;5.862;2022-10-13T15:50:24;11.45;;;9.88;;
54430;SDS011;40342;52.998;5.862;2022-10-13T15:52:50;12.43;;;10.13;;
54430;SDS011;40342;52.998;5.862;2022-10-13T15:55:15;13.55;;;11.02;;
54430;SDS011;40342;52.998;5.862;2022-10-13T15:57:41;17.85;;;12.82;;
54430;SDS011;40342;52.998;5.862;2022-10-13T16:00:07;12.90;;;11.55;;
54430;SDS011;40342;52.998;5.862;2022-10-13T16:02:36;21.35;;;14.05;;
54430;SDS011;40342;52.998;5.862;2022-10-13T16:05:01;14.68;;;11.10;;
54430;SDS011;40342;52.998;5.862;2022-10-13T16:07:29;14.13;;;12.50;;
54430;SDS011;40342;52.998;5.862;2022-10-13T16:09:55;14.80;;;11.85;;
54430;SDS011;40342;52.998;5.862;2022-10-13T16:12:21;15.75;;;13.15;;
54430;SDS011;40342;52.998;5.862;2022-10-13T16:14:50;15.30;;;12.15;;